This is the latest recevied weather packets stored in our database for station/object SAVIL. If no packets are shown the sender has not sent any weather packets the latest 10 day(s).
| Time | Temp. | Humidity | Pressure | Rain* | Wind** | Luminosity | Snow |
|---|---|---|---|---|---|---|---|
| 1777512408 | 1.67° C | 64% | 1019 hPa | 0 mm | - | - | - |
| 1777511207 | 1.11° C | 69% | 1019.1 hPa | 0 mm | - | - | - |
| 1777510007 | 0.56° C | 67% | 1019.3 hPa | 0 mm | - | - | - |
| 1777508807 | 1.11° C | 64% | 1019.2 hPa | 0 mm | - | - | - |
| 1777507607 | 0° C | 81% | 1019.4 hPa | 0 mm | - | - | - |
| 1777506407 | 0° C | 80% | 1019.6 hPa | 0 mm | - | - | - |
| 1777505207 | 0° C | 78% | 1019.6 hPa | 0 mm | - | - | - |
| 1777504007 | 0° C | 79% | 1019.8 hPa | 0 mm | - | - | - |
| 1777502807 | 0° C | 73% | 1019.7 hPa | 0 mm | - | - | - |
| 1777501607 | 0° C | 76% | 1019.9 hPa | 0 mm | - | - | - |
| 1777500407 | 0.56° C | 74% | 1019.9 hPa | 0 mm | - | - | - |
| 1777499207 | 0.56° C | 74% | 1020 hPa | 0 mm | - | - | - |
| 1777498007 | 0.56° C | 71% | 1019.9 hPa | 0 mm | - | - | - |
| 1777496807 | 0.56° C | 68% | 1020 hPa | 0 mm | - | - | - |
| 1777495607 | 1.11° C | 67% | 1019.9 hPa | 0 mm | - | - | - |
| 1777494406 | 1.67° C | 62% | 1019.9 hPa | 0 mm | - | - | - |
| 1777493207 | 2.22° C | 60% | 1020 hPa | 0 mm | - | - | - |
| 1777492006 | 2.22° C | 55% | 1020.1 hPa | 0 mm | - | - | - |
| 1777490806 | 2.78° C | 54% | 1020.2 hPa | 0 mm | - | - | - |
| 1777489606 | 3.89° C | 46% | 1020.2 hPa | 0 mm | - | - | - |
| 1777488406 | 4.44° C | 45% | 1020.2 hPa | 0 mm | - | - | - |
| 1777487206 | 4.44° C | 44% | 1020.2 hPa | 0 mm | - | - | - |
| 1777486006 | 5° C | 43% | 1020.1 hPa | 0 mm | - | - | - |
| 1777484806 | 5.56° C | 41% | 1020 hPa | 0 mm | - | - | - |
| 1777483606 | 6.11° C | 40% | 1019.9 hPa | 0 mm | - | - | - |
* Rain latest hour (hover to see other rain measurements)
** Current wind speed in m/s (hover to see current wind gust speed)